KBOS

General Edward Lawrence Logan International Airport

Boston, Massachusetts, USA
KBOS 151735Z 1518/1624 05003KT P6SM OVC140 FM152100 10007KT P6SM OVC025 FM160000 11010KT 2SM -SNRA OVC015 FM160200 10012G22KT 3SM RA OVC008 FM160600 09020G39KT 3SM -RA OVC008 FM161500 01018KT 4SM BR OVC008 FM161700 32018G29KT P6SM BKN015 FM162000 30012G23KT P6SM BKN020 FM162300 26010KT P6SM BKN045
Issued Valid From Valid To
Nov-15 @ 17:35 UTC
(an hour ago)
Nov-15 @ 18:00 UTC
(58 minutes ago)
Nov-17 @ 00:00 UTC
(-1 days ago)
Nov-15 @ 18:00 to Nov-15 @ 21:00
KBOS 151735Z 1518/1624 05003KT P6SM OVC140
Wind Visibility Clouds
50° at 3 knots Greater than 6 miles
  • Overcast at 14,000' AGL
From Nov-15 @ 21:00 to Nov-16 @ 00:00
FM152100 10007KT P6SM OVC025
Wind Visibility Clouds
100° at 7 knots Greater than 6 miles
  • Overcast at 2,500' AGL
From Nov-16 @ 00:00 to Nov-16 @ 02:00
FM160000 11010KT 2SM -SNRA OVC015
Wind Visibility Clouds Conditions
110° at 10 knots 2 miles
  • Overcast at 1,500' AGL
  • Light Snow
  • Light Rain
From Nov-16 @ 02:00 to Nov-16 @ 06:00
FM160200 10012G22KT 3SM RA OVC008
Wind Visibility Clouds Conditions
100° at 12 knots
 Gusting to 22 knots
3 miles
  • Overcast at 800' AGL
  • Rain
From Nov-16 @ 06:00 to Nov-16 @ 15:00
FM160600 09020G39KT 3SM -RA OVC008
Wind Visibility Clouds Conditions
90° at 20 knots
 Gusting to 39 knots
3 miles
  • Overcast at 800' AGL
  • Light Rain
From Nov-16 @ 15:00 to Nov-16 @ 17:00
FM161500 01018KT 4SM BR OVC008
Wind Visibility Clouds Conditions
10° at 18 knots 4 miles
  • Overcast at 800' AGL
  • Mist
From Nov-16 @ 17:00 to Nov-16 @ 20:00
FM161700 32018G29KT P6SM BKN015
Wind Visibility Clouds
320° at 18 knots
 Gusting to 29 knots
Greater than 6 miles
  • Broken at 1,500' AGL
From Nov-16 @ 20:00 to Nov-16 @ 23:00
FM162000 30012G23KT P6SM BKN020
Wind Visibility Clouds
300° at 12 knots
 Gusting to 23 knots
Greater than 6 miles
  • Broken at 2,000' AGL
From Nov-16 @ 23:00 to Nov-17 @ 00:00
FM162300 26010KT P6SM BKN045
Wind Visibility Clouds
260° at 10 knots Greater than 6 miles
  • Broken at 4,500' AGL
KBOS 151735Z 1518/1624 05003KT P6SM OVC140 FM152100 10007KT P6SM OVC025 FM160000 11010KT 2SM -SNRA OVC015 FM160200 10012G22KT 3SM RA OVC008 FM160600 09020G39KT 3SM -RA OVC008 FM161500 01018KT 4SM BR OVC008 FM161700 32018G29KT P6SM BKN015 FM162000 30012G23KT P6SM BKN020 FM162300 26010KT P6SM BKN045
Issued Nov-15 @ 17:35 UTC
(an hour ago)
Valid From Nov-15 @ 18:00 UTC
(58 minutes ago)
Valid To Nov-17 @ 00:00 UTC
(-1 days ago)
Nov-15 @ 18:00 - Nov-15 @ 21:00
Wind Visibility
50° at 3 knots Greater than 6 miles
Clouds
  • Overcast at 14,000' AGL
From Nov-15 @ 21:00 - Nov-16 @ 00:00
Wind Visibility
100° at 7 knots Greater than 6 miles
Clouds
  • Overcast at 2,500' AGL
From Nov-16 @ 00:00 - Nov-16 @ 02:00
Wind Visibility
110° at 10 knots 2 miles
Clouds
  • Overcast at 1,500' AGL
Conditions
  • Light Snow
  • Light Rain
From Nov-16 @ 02:00 - Nov-16 @ 06:00
Wind Visibility
100° at 12 knots
 Gusting to 22 knots
3 miles
Clouds
  • Overcast at 800' AGL
Conditions
  • Rain
From Nov-16 @ 06:00 - Nov-16 @ 15:00
Wind Visibility
90° at 20 knots
 Gusting to 39 knots
3 miles
Clouds
  • Overcast at 800' AGL
Conditions
  • Light Rain
From Nov-16 @ 15:00 - Nov-16 @ 17:00
Wind Visibility
10° at 18 knots 4 miles
Clouds
  • Overcast at 800' AGL
Conditions
  • Mist
From Nov-16 @ 17:00 - Nov-16 @ 20:00
Wind Visibility
320° at 18 knots
 Gusting to 29 knots
Greater than 6 miles
Clouds
  • Broken at 1,500' AGL
From Nov-16 @ 20:00 - Nov-16 @ 23:00
Wind Visibility
300° at 12 knots
 Gusting to 23 knots
Greater than 6 miles
Clouds
  • Broken at 2,000' AGL
From Nov-16 @ 23:00 - Nov-17 @ 00:00
Wind Visibility
260° at 10 knots Greater than 6 miles
Clouds
  • Broken at 4,500' AGL